sensor_id;sensor_type;location;lat;lon;timestamp;pressure;altitude;pressure_sealevel;temperature;humidity
12949;BME280;6539;49.476;8.484;2023-05-02T00:00:41;100636.31;;;16.97;58.00
12949;BME280;6539;49.476;8.484;2023-05-02T00:03:13;100631.97;;;16.96;57.48
12949;BME280;6539;49.476;8.484;2023-05-02T00:05:42;100633.53;;;16.97;57.17
12949;BME280;6539;49.476;8.484;2023-05-02T00:08:08;100632.88;;;16.93;57.05
12949;BME280;6539;49.476;8.484;2023-05-02T00:10:34;100632.88;;;16.93;57.13
12949;BME280;6539;49.476;8.484;2023-05-02T00:12:59;100636.84;;;16.92;57.07
12949;BME280;6539;49.476;8.484;2023-05-02T00:15:25;100638.97;;;16.88;57.16
12949;BME280;6539;49.476;8.484;2023-05-02T00:17:52;100637.06;;;16.85;57.22
12949;BME280;6539;49.476;8.484;2023-05-02T00:20:20;100636.72;;;16.83;57.10
12949;BME280;6539;49.476;8.484;2023-05-02T00:22:48;100635.72;;;16.76;56.94
12949;BME280;6539;49.476;8.484;2023-05-02T00:25:14;100638.63;;;16.73;57.10
12949;BME280;6539;49.476;8.484;2023-05-02T00:27:43;100639.94;;;16.68;56.92
12949;BME280;6539;49.476;8.484;2023-05-02T00:30:11;100634.47;;;16.65;57.12
12949;BME280;6539;49.476;8.484;2023-05-02T00:32:42;100641.72;;;16.62;56.87
12949;BME280;6539;49.476;8.484;2023-05-02T00:35:08;100648.13;;;16.59;56.98
12949;BME280;6539;49.476;8.484;2023-05-02T00:37:36;100645.88;;;16.54;56.75
12949;BME280;6539;49.476;8.484;2023-05-02T00:40:06;100648.41;;;16.49;56.69
12949;BME280;6539;49.476;8.484;2023-05-02T00:42:37;100645.38;;;16.43;56.98
12949;BME280;6539;49.476;8.484;2023-05-02T00:45:03;100650.78;;;16.34;57.07
12949;BME280;6539;49.476;8.484;2023-05-02T00:47:31;100645.34;;;16.31;57.48
12949;BME280;6539;49.476;8.484;2023-05-02T00:49:57;100644.91;;;16.32;57.04
12949;BME280;6539;49.476;8.484;2023-05-02T00:52:27;100644.47;;;16.34;57.06
12949;BME280;6539;49.476;8.484;2023-05-02T00:54:53;100649.75;;;16.28;56.82
12949;BME280;6539;49.476;8.484;2023-05-02T00:57:19;100640.75;;;16.24;57.36
12949;BME280;6539;49.476;8.484;2023-05-02T00:59:45;100641.41;;;16.16;57.01
12949;BME280;6539;49.476;8.484;2023-05-02T01:02:47;100650.16;;;16.14;57.11
12949;BME280;6539;49.476;8.484;2023-05-02T01:05:38;100646.19;;;16.15;56.97
12949;BME280;6539;49.476;8.484;2023-05-02T01:08:46;100652.91;;;16.14;56.93
12949;BME280;6539;49.476;8.484;2023-05-02T01:13:52;100655.88;;;16.07;57.24
12949;BME280;6539;49.476;8.484;2023-05-02T01:16:26;100657.53;;;16.04;57.54
12949;BME280;6539;49.476;8.484;2023-05-02T01:19:00;100659.53;;;16.04;57.61
12949;BME280;6539;49.476;8.484;2023-05-02T01:21:32;100665.50;;;16.02;57.73
12949;BME280;6539;49.476;8.484;2023-05-02T01:24:21;100664.72;;;16.02;57.75
12949;BME280;6539;49.476;8.484;2023-05-02T01:27:17;100665.59;;;15.99;57.49
12949;BME280;6539;49.476;8.484;2023-05-02T01:29:50;100664.91;;;15.95;57.40
12949;BME280;6539;49.476;8.484;2023-05-02T01:32:22;100679.28;;;15.90;57.66
12949;BME280;6539;49.476;8.484;2023-05-02T01:34:53;100669.75;;;15.91;57.69
12949;BME280;6539;49.476;8.484;2023-05-02T01:37:23;100674.63;;;15.87;57.68
12949;BME280;6539;49.476;8.484;2023-05-02T01:39:51;100674.69;;;15.83;57.75
12949;BME280;6539;49.476;8.484;2023-05-02T01:42:21;100675.31;;;15.75;58.23
12949;BME280;6539;49.476;8.484;2023-05-02T01:44:49;100679.72;;;15.72;58.29
12949;BME280;6539;49.476;8.484;2023-05-02T01:47:20;100681.09;;;15.64;58.69
12949;BME280;6539;49.476;8.484;2023-05-02T01:49:50;100683.78;;;15.68;58.52
12949;BME280;6539;49.476;8.484;2023-05-02T01:52:18;100684.16;;;15.70;58.62
12949;BME280;6539;49.476;8.484;2023-05-02T01:54:46;100694.84;;;15.68;58.38
12949;BME280;6539;49.476;8.484;2023-05-02T01:57:15;100696.25;;;15.60;58.66
12949;BME280;6539;49.476;8.484;2023-05-02T01:59:43;100696.78;;;15.55;58.80
12949;BME280;6539;49.476;8.484;2023-05-02T02:02:13;100696.00;;;15.54;58.87
12949;BME280;6539;49.476;8.484;2023-05-02T02:04:40;100703.06;;;15.55;58.83
12949;BME280;6539;49.476;8.484;2023-05-02T02:07:13;100701.59;;;15.51;58.74
12949;BME280;6539;49.476;8.484;2023-05-02T02:09:39;100704.34;;;15.51;58.88
12949;BME280;6539;49.476;8.484;2023-05-02T02:12:27;100710.47;;;15.42;59.26
12949;BME280;6539;49.476;8.484;2023-05-02T02:15:04;100719.19;;;15.41;59.21
12949;BME280;6539;49.476;8.484;2023-05-02T02:17:42;100721.19;;;15.40;59.11
12949;BME280;6539;49.476;8.484;2023-05-02T02:20:14;100723.53;;;15.42;59.22
12949;BME280;6539;49.476;8.484;2023-05-02T02:22:43;100719.19;;;15.41;59.34
12949;BME280;6539;49.476;8.484;2023-05-02T02:25:14;100726.69;;;15.44;59.07
12949;BME280;6539;49.476;8.484;2023-05-02T02:27:46;100724.66;;;15.44;59.18
12949;BME280;6539;49.476;8.484;2023-05-02T02:30:12;100734.97;;;15.44;59.10
12949;BME280;6539;49.476;8.484;2023-05-02T02:32:42;100739.28;;;15.45;59.13
12949;BME280;6539;49.476;8.484;2023-05-02T02:35:09;100736.88;;;15.47;58.85
12949;BME280;6539;49.476;8.484;2023-05-02T02:37:45;100739.63;;;15.47;58.78
12949;BME280;6539;49.476;8.484;2023-05-02T02:40:22;100739.28;;;15.45;58.83
12949;BME280;6539;49.476;8.484;2023-05-02T02:43:11;100747.19;;;15.46;58.69
12949;BME280;6539;49.476;8.484;2023-05-02T02:46:27;100745.50;;;15.49;58.74
12949;BME280;6539;49.476;8.484;2023-05-02T02:49:37;100739.72;;;15.43;58.88
12949;BME280;6539;49.476;8.484;2023-05-02T02:52:21;100743.28;;;15.44;58.70
12949;BME280;6539;49.476;8.484;2023-05-02T02:54:59;100754.72;;;15.42;58.75
12949;BME280;6539;49.476;8.484;2023-05-02T02:58:00;100754.47;;;15.37;59.13
12949;BME280;6539;49.476;8.484;2023-05-02T03:00:30;100747.38;;;15.36;59.42
12949;BME280;6539;49.476;8.484;2023-05-02T03:02:57;100750.66;;;15.31;59.39
12949;BME280;6539;49.476;8.484;2023-05-02T03:05:25;100754.47;;;15.37;59.36
12949;BME280;6539;49.476;8.484;2023-05-02T03:07:52;100760.44;;;15.35;59.21
12949;BME280;6539;49.476;8.484;2023-05-02T03:10:17;100762.56;;;15.27;59.60
12949;BME280;6539;49.476;8.484;2023-05-02T03:12:43;100757.13;;;15.24;59.75
12949;BME280;6539;49.476;8.484;2023-05-02T03:18:49;100764.63;;;15.23;59.76
12949;BME280;6539;49.476;8.484;2023-05-02T03:21:14;100770.50;;;15.25;59.71
12949;BME280;6539;49.476;8.484;2023-05-02T03:23:43;100770.94;;;15.24;59.80
12949;BME280;6539;49.476;8.484;2023-05-02T03:26:08;100780.97;;;15.18;59.89
12949;BME280;6539;49.476;8.484;2023-05-02T03:28:44;100781.72;;;15.18;60.16
12949;BME280;6539;49.476;8.484;2023-05-02T03:31:12;100786.91;;;15.16;60.21
12949;BME280;6539;49.476;8.484;2023-05-02T03:33:39;100791.25;;;15.17;60.22
12949;BME280;6539;49.476;8.484;2023-05-02T03:36:07;100796.34;;;15.19;60.23
12949;BME280;6539;49.476;8.484;2023-05-02T03:38:40;100794.06;;;15.14;60.44
12949;BME280;6539;49.476;8.484;2023-05-02T03:41:06;100799.66;;;15.10;60.64
12949;BME280;6539;49.476;8.484;2023-05-02T03:43:34;100790.25;;;15.08;60.70
12949;BME280;6539;49.476;8.484;2023-05-02T03:46:07;100800.50;;;15.07;60.61
12949;BME280;6539;49.476;8.484;2023-05-02T03:48:34;100798.63;;;15.04;60.80
12949;BME280;6539;49.476;8.484;2023-05-02T03:51:03;100802.31;;;14.98;61.06
12949;BME280;6539;49.476;8.484;2023-05-02T03:53:30;100808.63;;;14.98;60.75
12949;BME280;6539;49.476;8.484;2023-05-02T03:55:56;100803.78;;;15.02;61.04
12949;BME280;6539;49.476;8.484;2023-05-02T03:58:22;100817.25;;;15.00;61.03
12949;BME280;6539;49.476;8.484;2023-05-02T04:00:50;100821.34;;;14.92;61.11
12949;BME280;6539;49.476;8.484;2023-05-02T04:03:17;100823.06;;;14.86;61.33
12949;BME280;6539;49.476;8.484;2023-05-02T04:05:43;100824.31;;;14.82;61.66
12949;BME280;6539;49.476;8.484;2023-05-02T04:08:11;100829.22;;;14.74;62.18
12949;BME280;6539;49.476;8.484;2023-05-02T04:10:38;100830.84;;;14.72;61.97
12949;BME280;6539;49.476;8.484;2023-05-02T04:13:04;100835.66;;;14.68;62.29
12949;BME280;6539;49.476;8.484;2023-05-02T04:15:32;100840.16;;;14.58;62.51
12949;BME280;6539;49.476;8.484;2023-05-02T04:18:00;100844.91;;;14.58;62.35
12949;BME280;6539;49.476;8.484;2023-05-02T04:20:26;100849.13;;;14.42;62.70
12949;BME280;6539;49.476;8.484;2023-05-02T04:22:54;100857.09;;;14.37;63.35
12949;BME280;6539;49.476;8.484;2023-05-02T04:25:22;100861.34;;;14.15;64.39
12949;BME280;6539;49.476;8.484;2023-05-02T04:27:48;100865.34;;;14.14;64.63
12949;BME280;6539;49.476;8.484;2023-05-02T04:30:13;100868.91;;;14.11;64.46
12949;BME280;6539;49.476;8.484;2023-05-02T04:32:44;100867.72;;;14.12;64.78
12949;BME280;6539;49.476;8.484;2023-05-02T04:35:10;100871.22;;;14.16;64.67
12949;BME280;6539;49.476;8.484;2023-05-02T04:37:36;100876.38;;;14.14;64.61
12949;BME280;6539;49.476;8.484;2023-05-02T04:40:04;100881.44;;;14.19;64.54
12949;BME280;6539;49.476;8.484;2023-05-02T04:42:30;100889.66;;;14.22;64.35
12949;BME280;6539;49.476;8.484;2023-05-02T04:44:56;100891.56;;;14.29;64.48
12949;BME280;6539;49.476;8.484;2023-05-02T04:47:22;100887.13;;;14.35;64.29
12949;BME280;6539;49.476;8.484;2023-05-02T04:49:50;100892.66;;;14.35;64.36
12949;BME280;6539;49.476;8.484;2023-05-02T04:52:20;100892.56;;;14.38;64.26
12949;BME280;6539;49.476;8.484;2023-05-02T04:54:46;100895.41;;;14.58;67.80
12949;BME280;6539;49.476;8.484;2023-05-02T04:57:14;100901.31;;;14.83;68.13
12949;BME280;6539;49.476;8.484;2023-05-02T04:59:40;100896.50;;;14.87;64.84
12949;BME280;6539;49.476;8.484;2023-05-02T05:02:06;100895.88;;;14.99;66.52
12949;BME280;6539;49.476;8.484;2023-05-02T05:04:36;100898.59;;;15.03;64.01
12949;BME280;6539;49.476;8.484;2023-05-02T05:07:09;100908.00;;;15.05;63.08
12949;BME280;6539;49.476;8.484;2023-05-02T05:09:35;100915.13;;;15.06;62.77
12949;BME280;6539;49.476;8.484;2023-05-02T05:12:01;100910.28;;;15.10;62.39
12949;BME280;6539;49.476;8.484;2023-05-02T05:14:27;100922.84;;;15.15;62.30
12949;BME280;6539;49.476;8.484;2023-05-02T05:16:58;100920.44;;;15.17;62.20
12949;BME280;6539;49.476;8.484;2023-05-02T05:19:24;100921.16;;;15.21;62.17
12949;BME280;6539;49.476;8.484;2023-05-02T05:21:52;100929.75;;;15.26;61.92
12949;BME280;6539;49.476;8.484;2023-05-02T05:24:22;100936.78;;;15.31;61.88
12949;BME280;6539;49.476;8.484;2023-05-02T05:26:48;100934.31;;;15.37;61.68
12949;BME280;6539;49.476;8.484;2023-05-02T05:29:14;100938.13;;;15.46;61.49
12949;BME280;6539;49.476;8.484;2023-05-02T05:31:45;100951.88;;;15.50;61.36
12949;BME280;6539;49.476;8.484;2023-05-02T05:34:14;100954.50;;;15.57;61.07
12949;BME280;6539;49.476;8.484;2023-05-02T05:36:42;100968.63;;;15.62;60.81
12949;BME280;6539;49.476;8.484;2023-05-02T05:39:08;100969.44;;;15.59;60.78
12949;BME280;6539;49.476;8.484;2023-05-02T05:41:36;100972.56;;;15.61;60.93
12949;BME280;6539;49.476;8.484;2023-05-02T05:44:05;100978.53;;;15.60;60.99
12949;BME280;6539;49.476;8.484;2023-05-02T05:46:30;100976.13;;;15.62;60.84
12949;BME280;6539;49.476;8.484;2023-05-02T05:48:56;100976.47;;;15.64;60.89
12949;BME280;6539;49.476;8.484;2023-05-02T05:51:24;100979.97;;;15.68;60.89
12949;BME280;6539;49.476;8.484;2023-05-02T05:53:52;100983.88;;;15.70;60.82
12949;BME280;6539;49.476;8.484;2023-05-02T05:56:18;100982.53;;;15.78;60.97
12949;BME280;6539;49.476;8.484;2023-05-02T05:58:46;100988.69;;;15.86;60.79
12949;BME280;6539;49.476;8.484;2023-05-02T06:01:14;100982.50;;;15.98;60.36
12949;BME280;6539;49.476;8.484;2023-05-02T06:03:40;100989.47;;;16.06;60.17
12949;BME280;6539;49.476;8.484;2023-05-02T06:06:08;100984.91;;;16.16;59.98
12949;BME280;6539;49.476;8.484;2023-05-02T06:08:36;100995.00;;;16.26;59.45
12949;BME280;6539;49.476;8.484;2023-05-02T06:11:08;100992.81;;;16.33;59.31
12949;BME280;6539;49.476;8.484;2023-05-02T06:13:35;101000.13;;;16.43;58.80
12949;BME280;6539;49.476;8.484;2023-05-02T06:16:02;101003.16;;;16.49;58.89
12949;BME280;6539;49.476;8.484;2023-05-02T06:18:28;101002.31;;;16.52;58.53
12949;BME280;6539;49.476;8.484;2023-05-02T06:20:53;101011.88;;;16.51;58.44
12949;BME280;6539;49.476;8.484;2023-05-02T06:23:19;101008.00;;;16.45;58.97
12949;BME280;6539;49.476;8.484;2023-05-02T06:25:45;101010.00;;;16.44;59.00
12949;BME280;6539;49.476;8.484;2023-05-02T06:28:11;101012.91;;;16.37;59.36
12949;BME280;6539;49.476;8.484;2023-05-02T06:30:41;101016.03;;;16.39;59.39
12949;BME280;6539;49.476;8.484;2023-05-02T06:33:07;101023.22;;;16.37;59.84
12949;BME280;6539;49.476;8.484;2023-05-02T06:35:32;101021.59;;;16.39;59.67
12949;BME280;6539;49.476;8.484;2023-05-02T06:37:58;101028.22;;;16.45;59.92
12949;BME280;6539;49.476;8.484;2023-05-02T06:40:26;101029.06;;;16.42;59.71
12949;BME280;6539;49.476;8.484;2023-05-02T06:42:54;101039.59;;;16.51;59.30
12949;BME280;6539;49.476;8.484;2023-05-02T06:45:20;101038.28;;;16.55;59.12
12949;BME280;6539;49.476;8.484;2023-05-02T06:47:46;101043.59;;;16.82;58.61
12949;BME280;6539;49.476;8.484;2023-05-02T06:50:12;101039.72;;;16.96;58.00
12949;BME280;6539;49.476;8.484;2023-05-02T06:52:37;101043.72;;;17.27;57.81
12949;BME280;6539;49.476;8.484;2023-05-02T06:55:06;101043.16;;;17.48;56.74
12949;BME280;6539;49.476;8.484;2023-05-02T06:57:32;101049.88;;;17.79;55.87
12949;BME280;6539;49.476;8.484;2023-05-02T06:59:58;101042.88;;;18.16;54.61
12949;BME280;6539;49.476;8.484;2023-05-02T07:02:24;101056.94;;;18.38;53.47
12949;BME280;6539;49.476;8.484;2023-05-02T07:04:49;101061.78;;;18.50;52.89
12949;BME280;6539;49.476;8.484;2023-05-02T07:07:17;101059.66;;;18.79;52.36
12949;BME280;6539;49.476;8.484;2023-05-02T07:09:45;101054.66;;;18.99;51.31
12949;BME280;6539;49.476;8.484;2023-05-02T07:12:10;101054.53;;;18.90;50.99
12949;BME280;6539;49.476;8.484;2023-05-02T07:14:38;101054.31;;;18.72;51.38
12949;BME280;6539;49.476;8.484;2023-05-02T07:17:07;101053.88;;;18.61;51.75
12949;BME280;6539;49.476;8.484;2023-05-02T07:19:34;101048.34;;;18.61;52.09
12949;BME280;6539;49.476;8.484;2023-05-02T07:22:04;101056.88;;;18.91;50.95
12949;BME280;6539;49.476;8.484;2023-05-02T07:24:31;101054.94;;;19.39;49.90
12949;BME280;6539;49.476;8.484;2023-05-02T07:26:59;101049.91;;;20.02;48.25
12949;BME280;6539;49.476;8.484;2023-05-02T07:29:27;101054.28;;;20.56;46.44
12949;BME280;6539;49.476;8.484;2023-05-02T07:31:53;101058.47;;;20.91;45.03
12949;BME280;6539;49.476;8.484;2023-05-02T07:34:21;101061.81;;;21.16;44.42
12949;BME280;6539;49.476;8.484;2023-05-02T07:36:47;101062.63;;;21.26;44.00
12949;BME280;6539;49.476;8.484;2023-05-02T07:39:12;101060.47;;;21.30;43.29
12949;BME280;6539;49.476;8.484;2023-05-02T07:41:38;101057.22;;;21.41;42.75
12949;BME280;6539;49.476;8.484;2023-05-02T07:44:09;101059.56;;;21.51;42.18
12949;BME280;6539;49.476;8.484;2023-05-02T07:46:35;101056.72;;;21.15;42.09
12949;BME280;6539;49.476;8.484;2023-05-02T07:49:06;101057.84;;;20.87;42.93
12949;BME280;6539;49.476;8.484;2023-05-02T07:51:34;101063.38;;;21.08;42.78
12949;BME280;6539;49.476;8.484;2023-05-02T07:53:59;101071.31;;;21.19;42.14
12949;BME280;6539;49.476;8.484;2023-05-02T07:56:26;101063.72;;;21.19;41.55
12949;BME280;6539;49.476;8.484;2023-05-02T07:58:55;101076.34;;;21.02;42.22
12949;BME280;6539;49.476;8.484;2023-05-02T08:01:24;101077.25;;;20.99;42.72
12949;BME280;6539;49.476;8.484;2023-05-02T08:03:50;101071.44;;;21.06;42.54
12949;BME280;6539;49.476;8.484;2023-05-02T08:06:17;101071.13;;;21.13;42.79
12949;BME280;6539;49.476;8.484;2023-05-02T08:08:43;101069.03;;;21.45;41.96
12949;BME280;6539;49.476;8.484;2023-05-02T08:11:09;101072.63;;;21.54;41.21
12949;BME280;6539;49.476;8.484;2023-05-02T08:13:35;101075.72;;;21.56;41.29
12949;BME280;6539;49.476;8.484;2023-05-02T08:16:00;101087.06;;;21.71;40.96
12949;BME280;6539;49.476;8.484;2023-05-02T08:18:27;101082.72;;;21.79;40.08
12949;BME280;6539;49.476;8.484;2023-05-02T08:20:55;101089.69;;;21.65;40.90
12949;BME280;6539;49.476;8.484;2023-05-02T08:23:23;101089.53;;;21.60;40.97
12949;BME280;6539;49.476;8.484;2023-05-02T08:25:48;101090.16;;;21.73;40.71
12949;BME280;6539;49.476;8.484;2023-05-02T08:28:16;101099.91;;;21.50;40.41
12949;BME280;6539;49.476;8.484;2023-05-02T08:30:45;101092.75;;;21.31;41.08
12949;BME280;6539;49.476;8.484;2023-05-02T08:33:14;101098.28;;;21.22;41.97
12949;BME280;6539;49.476;8.484;2023-05-02T08:35:42;101099.47;;;21.61;41.68
12949;BME280;6539;49.476;8.484;2023-05-02T08:38:08;101100.44;;;22.12;41.19
12949;BME280;6539;49.476;8.484;2023-05-02T08:40:38;101104.28;;;22.51;40.06
12949;BME280;6539;49.476;8.484;2023-05-02T08:43:07;101104.09;;;22.72;39.05
12949;BME280;6539;49.476;8.484;2023-05-02T08:45:40;101104.59;;;22.95;39.14
12949;BME280;6539;49.476;8.484;2023-05-02T08:48:08;101110.69;;;23.26;38.81
12949;BME280;6539;49.476;8.484;2023-05-02T08:50:39;101115.56;;;23.16;38.32
12949;BME280;6539;49.476;8.484;2023-05-02T08:53:08;101114.47;;;22.81;38.20
12949;BME280;6539;49.476;8.484;2023-05-02T08:55:38;101103.50;;;22.41;39.15
12949;BME280;6539;49.476;8.484;2023-05-02T08:58:08;101118.63;;;22.17;39.75
12949;BME280;6539;49.476;8.484;2023-05-02T09:00:40;101117.97;;;21.76;40.40
12949;BME280;6539;49.476;8.484;2023-05-02T09:03:31;101128.28;;;21.40;41.11
12949;BME280;6539;49.476;8.484;2023-05-02T09:06:15;101123.75;;;21.15;41.53
12949;BME280;6539;49.476;8.484;2023-05-02T09:08:46;101129.13;;;20.79;42.46
12949;BME280;6539;49.476;8.484;2023-05-02T09:11:19;101136.50;;;20.64;42.59
12949;BME280;6539;49.476;8.484;2023-05-02T09:13:49;101142.41;;;20.44;43.08
12949;BME280;6539;49.476;8.484;2023-05-02T09:16:25;101141.38;;;20.29;43.44
12949;BME280;6539;49.476;8.484;2023-05-02T09:18:57;101149.88;;;20.13;43.93
12949;BME280;6539;49.476;8.484;2023-05-02T09:21:36;101157.72;;;20.05;44.11
12949;BME280;6539;49.476;8.484;2023-05-02T09:24:23;101154.16;;;20.05;44.33
12949;BME280;6539;49.476;8.484;2023-05-02T09:27:04;101156.09;;;20.17;43.86
12949;BME280;6539;49.476;8.484;2023-05-02T09:29:32;101155.47;;;20.13;44.35
12949;BME280;6539;49.476;8.484;2023-05-02T09:32:04;101152.34;;;20.11;44.65
12949;BME280;6539;49.476;8.484;2023-05-02T09:34:30;101153.69;;;20.06;44.95
12949;BME280;6539;49.476;8.484;2023-05-02T09:36:58;101156.63;;;20.03;45.58
12949;BME280;6539;49.476;8.484;2023-05-02T09:39:28;101162.19;;;20.03;45.77
12949;BME280;6539;49.476;8.484;2023-05-02T09:41:54;101155.97;;;19.99;45.81
12949;BME280;6539;49.476;8.484;2023-05-02T09:44:36;101166.16;;;19.80;46.25
12949;BME280;6539;49.476;8.484;2023-05-02T09:47:02;101167.06;;;19.77;46.21
12949;BME280;6539;49.476;8.484;2023-05-02T09:49:44;101169.44;;;19.66;46.45
12949;BME280;6539;49.476;8.484;2023-05-02T09:52:19;101175.47;;;19.52;46.73
12949;BME280;6539;49.476;8.484;2023-05-02T09:54:48;101174.44;;;19.33;47.24
12949;BME280;6539;49.476;8.484;2023-05-02T09:57:18;101169.22;;;19.10;47.77
12949;BME280;6539;49.476;8.484;2023-05-02T09:59:57;101175.53;;;18.98;48.31
12949;BME280;6539;49.476;8.484;2023-05-02T10:02:30;101186.13;;;18.90;48.44
12949;BME280;6539;49.476;8.484;2023-05-02T10:04:58;101181.22;;;18.82;48.75
12949;BME280;6539;49.476;8.484;2023-05-02T10:07:29;101187.75;;;18.75;48.93
12949;BME280;6539;49.476;8.484;2023-05-02T10:10:00;101185.06;;;18.72;48.81
12949;BME280;6539;49.476;8.484;2023-05-02T10:12:34;101184.38;;;18.68;48.90
12949;BME280;6539;49.476;8.484;2023-05-02T10:15:03;101189.25;;;18.51;49.76
12949;BME280;6539;49.476;8.484;2023-05-02T10:17:47;101189.03;;;18.46;49.40
12949;BME280;6539;49.476;8.484;2023-05-02T10:20:21;101186.41;;;18.39;49.70
12949;BME280;6539;49.476;8.484;2023-05-02T10:22:51;101191.97;;;18.39;49.80
12949;BME280;6539;49.476;8.484;2023-05-02T10:25:18;101194.28;;;18.40;49.86
12949;BME280;6539;49.476;8.484;2023-05-02T10:27:47;101198.19;;;18.43;49.89
12949;BME280;6539;49.476;8.484;2023-05-02T10:30:13;101197.00;;;18.44;49.79
12949;BME280;6539;49.476;8.484;2023-05-02T10:32:41;101191.69;;;18.49;49.18
12949;BME280;6539;49.476;8.484;2023-05-02T10:35:12;101192.19;;;18.60;48.81
12949;BME280;6539;49.476;8.484;2023-05-02T10:37:41;101194.22;;;18.85;48.04
12949;BME280;6539;49.476;8.484;2023-05-02T10:40:11;101193.81;;;18.99;47.63
12949;BME280;6539;49.476;8.484;2023-05-02T10:42:42;101191.03;;;19.24;46.52
12949;BME280;6539;49.476;8.484;2023-05-02T10:48:18;101184.13;;;20.13;42.47
12949;BME280;6539;49.476;8.484;2023-05-02T10:53:26;101176.63;;;20.88;40.67
12949;BME280;6539;49.476;8.484;2023-05-02T10:56:21;101177.47;;;21.28;39.89
12949;BME280;6539;49.476;8.484;2023-05-02T10:58:52;101174.75;;;21.55;39.22
12949;BME280;6539;49.476;8.484;2023-05-02T11:04:08;101170.66;;;21.96;39.04
12949;BME280;6539;49.476;8.484;2023-05-02T11:06:37;101160.59;;;22.08;39.01
12949;BME280;6539;49.476;8.484;2023-05-02T11:11:54;101165.56;;;22.04;38.29
12949;BME280;6539;49.476;8.484;2023-05-02T11:19:24;101169.44;;;22.24;37.79
12949;BME280;6539;49.476;8.484;2023-05-02T11:21:50;101170.06;;;22.46;37.25
12949;BME280;6539;49.476;8.484;2023-05-02T11:24:42;101160.72;;;22.67;36.85
12949;BME280;6539;49.476;8.484;2023-05-02T11:30:04;101162.06;;;22.90;36.85
12949;BME280;6539;49.476;8.484;2023-05-02T11:35:17;101167.84;;;22.77;36.66
12949;BME280;6539;49.476;8.484;2023-05-02T11:37:53;101165.63;;;22.91;36.11
12949;BME280;6539;49.476;8.484;2023-05-02T11:40:19;101161.69;;;23.06;34.99
12949;BME280;6539;49.476;8.484;2023-05-02T11:42:46;101161.47;;;23.19;35.11
12949;BME280;6539;49.476;8.484;2023-05-02T11:45:12;101158.44;;;23.40;34.36
12949;BME280;6539;49.476;8.484;2023-05-02T11:47:43;101159.13;;;23.59;34.05
12949;BME280;6539;49.476;8.484;2023-05-02T11:50:14;101165.50;;;23.60;33.76
12949;BME280;6539;49.476;8.484;2023-05-02T11:52:42;101152.16;;;23.55;34.08
12949;BME280;6539;49.476;8.484;2023-05-02T11:55:14;101147.97;;;23.50;34.67
12949;BME280;6539;49.476;8.484;2023-05-02T11:57:40;101148.41;;;23.48;35.22
12949;BME280;6539;49.476;8.484;2023-05-02T12:00:09;101144.72;;;23.42;35.27
12949;BME280;6539;49.476;8.484;2023-05-02T12:02:39;101157.66;;;23.40;35.42
12949;BME280;6539;49.476;8.484;2023-05-02T12:05:11;101152.25;;;23.27;35.37
12949;BME280;6539;49.476;8.484;2023-05-02T12:07:45;101148.50;;;22.98;36.03
12949;BME280;6539;49.476;8.484;2023-05-02T12:10:16;101153.88;;;22.68;35.64
12949;BME280;6539;49.476;8.484;2023-05-02T12:12:44;101156.19;;;22.43;35.29
12949;BME280;6539;49.476;8.484;2023-05-02T12:15:11;101158.84;;;22.19;35.03
12949;BME280;6539;49.476;8.484;2023-05-02T12:17:45;101160.59;;;22.08;35.63
12949;BME280;6539;49.476;8.484;2023-05-02T12:20:14;101169.28;;;22.00;35.89
12949;BME280;6539;49.476;8.484;2023-05-02T12:22:41;101167.25;;;22.01;36.20
12949;BME280;6539;49.476;8.484;2023-05-02T12:25:07;101165.25;;;21.92;36.38
12949;BME280;6539;49.476;8.484;2023-05-02T12:27:33;101172.84;;;21.92;36.72
12949;BME280;6539;49.476;8.484;2023-05-02T12:30:02;101175.31;;;21.90;36.93
12949;BME280;6539;49.476;8.484;2023-05-02T12:32:33;101170.34;;;21.94;36.80
12949;BME280;6539;49.476;8.484;2023-05-02T12:35:03;101170.34;;;21.94;37.20
12949;BME280;6539;49.476;8.484;2023-05-02T12:37:29;101169.88;;;21.95;36.92
12949;BME280;6539;49.476;8.484;2023-05-02T12:39:55;101181.22;;;21.92;37.00
12949;BME280;6539;49.476;8.484;2023-05-02T12:42:25;101176.56;;;21.89;37.01
12949;BME280;6539;49.476;8.484;2023-05-02T12:44:52;101179.03;;;21.87;36.73
12949;BME280;6539;49.476;8.484;2023-05-02T12:47:21;101173.63;;;21.83;36.98
12949;BME280;6539;49.476;8.484;2023-05-02T12:49:56;101175.03;;;21.88;36.81
12949;BME280;6539;49.476;8.484;2023-05-02T12:52:49;101168.66;;;22.06;36.54
12949;BME280;6539;49.476;8.484;2023-05-02T12:55:20;101169.91;;;22.14;36.59
12949;BME280;6539;49.476;8.484;2023-05-02T12:57:47;101163.53;;;22.13;36.30
12949;BME280;6539;49.476;8.484;2023-05-02T13:00:16;101161.81;;;22.16;36.42
12949;BME280;6539;49.476;8.484;2023-05-02T13:02:45;101161.53;;;22.23;36.61
12949;BME280;6539;49.476;8.484;2023-05-02T13:05:19;101166.28;;;22.49;36.05
12949;BME280;6539;49.476;8.484;2023-05-02T13:07:48;101164.09;;;22.81;35.63
12949;BME280;6539;49.476;8.484;2023-05-02T13:10:14;101154.41;;;22.91;34.84
12949;BME280;6539;49.476;8.484;2023-05-02T13:12:45;101149.69;;;23.06;34.99
12949;BME280;6539;49.476;8.484;2023-05-02T13:15:13;101148.34;;;23.25;34.54
12949;BME280;6539;49.476;8.484;2023-05-02T13:17:39;101148.84;;;23.23;33.95
12949;BME280;6539;49.476;8.484;2023-05-02T13:20:06;101154.38;;;23.00;34.44
12949;BME280;6539;49.476;8.484;2023-05-02T13:22:33;101146.94;;;22.97;34.57
12949;BME280;6539;49.476;8.484;2023-05-02T13:24:58;101143.94;;;23.09;34.37
12949;BME280;6539;49.476;8.484;2023-05-02T13:27:24;101150.09;;;23.22;34.19
12949;BME280;6539;49.476;8.484;2023-05-02T13:29:51;101149.25;;;23.40;33.44
12949;BME280;6539;49.476;8.484;2023-05-02T13:32:18;101144.56;;;23.46;33.07
12949;BME280;6539;49.476;8.484;2023-05-02T13:34:46;101150.50;;;23.39;32.11
12949;BME280;6539;49.476;8.484;2023-05-02T13:37:14;101144.75;;;23.33;31.84
12949;BME280;6539;49.476;8.484;2023-05-02T13:39:43;101147.13;;;23.35;31.62
12949;BME280;6539;49.476;8.484;2023-05-02T13:42:08;101153.63;;;23.41;31.13